sensor_id;sensor_type;location;lat;lon;timestamp;temperature;humidity
19567;DHT22;9930;49.240;8.548;2023-03-23T00:00:24;17.50;55.00
19567;DHT22;9930;49.240;8.548;2023-03-23T00:02:50;17.50;55.00
19567;DHT22;9930;49.240;8.548;2023-03-23T00:05:19;17.50;55.00
19567;DHT22;9930;49.240;8.548;2023-03-23T00:07:49;17.50;55.00
19567;DHT22;9930;49.240;8.548;2023-03-23T00:10:17;17.50;55.10
19567;DHT22;9930;49.240;8.548;2023-03-23T00:12:43;17.50;55.10
19567;DHT22;9930;49.240;8.548;2023-03-23T00:15:15;17.50;55.10
19567;DHT22;9930;49.240;8.548;2023-03-23T00:17:42;17.50;55.10
19567;DHT22;9930;49.240;8.548;2023-03-23T00:20:15;17.50;55.10
19567;DHT22;9930;49.240;8.548;2023-03-23T00:22:43;17.50;55.10
19567;DHT22;9930;49.240;8.548;2023-03-23T00:25:10;17.50;55.10
19567;DHT22;9930;49.240;8.548;2023-03-23T00:27:40;17.50;55.10
19567;DHT22;9930;49.240;8.548;2023-03-23T00:30:06;17.50;55.10
19567;DHT22;9930;49.240;8.548;2023-03-23T00:32:35;17.40;55.10
19567;DHT22;9930;49.240;8.548;2023-03-23T00:35:01;17.40;55.10
19567;DHT22;9930;49.240;8.548;2023-03-23T00:37:31;17.40;55.10
19567;DHT22;9930;49.240;8.548;2023-03-23T00:39:56;17.40;55.10
19567;DHT22;9930;49.240;8.548;2023-03-23T00:42:23;17.40;55.10
19567;DHT22;9930;49.240;8.548;2023-03-23T00:44:50;17.40;55.10
19567;DHT22;9930;49.240;8.548;2023-03-23T00:47:19;17.40;55.20
19567;DHT22;9930;49.240;8.548;2023-03-23T00:49:45;17.30;55.20
19567;DHT22;9930;49.240;8.548;2023-03-23T00:52:13;17.30;55.20
19567;DHT22;9930;49.240;8.548;2023-03-23T00:54:39;17.30;55.30
19567;DHT22;9930;49.240;8.548;2023-03-23T00:57:05;17.30;55.30
19567;DHT22;9930;49.240;8.548;2023-03-23T00:59:33;17.30;55.30
19567;DHT22;9930;49.240;8.548;2023-03-23T01:02:01;17.30;55.40
19567;DHT22;9930;49.240;8.548;2023-03-23T01:04:29;17.30;55.40
19567;DHT22;9930;49.240;8.548;2023-03-23T01:06:57;17.20;55.40
19567;DHT22;9930;49.240;8.548;2023-03-23T01:09:25;17.20;55.30
19567;DHT22;9930;49.240;8.548;2023-03-23T01:11:53;17.20;55.30
19567;DHT22;9930;49.240;8.548;2023-03-23T01:14:23;17.20;55.30
19567;DHT22;9930;49.240;8.548;2023-03-23T01:16:51;17.20;55.30
19567;DHT22;9930;49.240;8.548;2023-03-23T01:19:16;17.20;55.30
19567;DHT22;9930;49.240;8.548;2023-03-23T01:21:49;17.20;55.20
19567;DHT22;9930;49.240;8.548;2023-03-23T01:24:15;17.10;55.30
19567;DHT22;9930;49.240;8.548;2023-03-23T01:26:41;17.10;55.20
19567;DHT22;9930;49.240;8.548;2023-03-23T01:29:07;17.10;55.30
19567;DHT22;9930;49.240;8.548;2023-03-23T01:31:33;17.10;55.30
19567;DHT22;9930;49.240;8.548;2023-03-23T01:34:02;17.10;55.30
19567;DHT22;9930;49.240;8.548;2023-03-23T01:36:29;17.10;55.30
19567;DHT22;9930;49.240;8.548;2023-03-23T01:38:59;17.10;55.40
19567;DHT22;9930;49.240;8.548;2023-03-23T01:41:26;17.00;55.40
19567;DHT22;9930;49.240;8.548;2023-03-23T01:46:45;17.00;55.50
19567;DHT22;9930;49.240;8.548;2023-03-23T01:49:20;17.00;55.40
19567;DHT22;9930;49.240;8.548;2023-03-23T01:51:57;17.00;55.50
19567;DHT22;9930;49.240;8.548;2023-03-23T01:54:29;17.00;55.50
19567;DHT22;9930;49.240;8.548;2023-03-23T01:57:00;17.00;55.60
19567;DHT22;9930;49.240;8.548;2023-03-23T01:59:32;16.90;55.60
19567;DHT22;9930;49.240;8.548;2023-03-23T02:02:00;16.90;55.70
19567;DHT22;9930;49.240;8.548;2023-03-23T02:04:31;16.90;55.70
19567;DHT22;9930;49.240;8.548;2023-03-23T02:06:59;16.90;55.70
19567;DHT22;9930;49.240;8.548;2023-03-23T02:09:27;16.90;55.80
19567;DHT22;9930;49.240;8.548;2023-03-23T02:11:56;16.90;55.80
19567;DHT22;9930;49.240;8.548;2023-03-23T02:14:27;16.90;55.80
19567;DHT22;9930;49.240;8.548;2023-03-23T02:32:04;16.80;56.10
19567;DHT22;9930;49.240;8.548;2023-03-23T02:34:54;16.70;56.10
19567;DHT22;9930;49.240;8.548;2023-03-23T02:37:46;16.70;56.10
19567;DHT22;9930;49.240;8.548;2023-03-23T02:40:33;16.70;56.70
19567;DHT22;9930;49.240;8.548;2023-03-23T02:43:08;16.70;56.10
19567;DHT22;9930;49.240;8.548;2023-03-23T02:45:38;16.70;56.10
19567;DHT22;9930;49.240;8.548;2023-03-23T02:48:05;16.70;56.20
19567;DHT22;9930;49.240;8.548;2023-03-23T02:50:36;16.70;56.20
19567;DHT22;9930;49.240;8.548;2023-03-23T02:53:10;16.70;56.30
19567;DHT22;9930;49.240;8.548;2023-03-23T02:55:42;16.70;56.30
19567;DHT22;9930;49.240;8.548;2023-03-23T02:58:10;16.70;56.30
19567;DHT22;9930;49.240;8.548;2023-03-23T03:00:37;16.70;56.40
19567;DHT22;9930;49.240;8.548;2023-03-23T03:03:05;16.70;56.40
19567;DHT22;9930;49.240;8.548;2023-03-23T03:08:41;16.70;56.50
19567;DHT22;9930;49.240;8.548;2023-03-23T03:11:18;16.70;56.60
19567;DHT22;9930;49.240;8.548;2023-03-23T03:14:04;16.60;56.60
19567;DHT22;9930;49.240;8.548;2023-03-23T03:16:40;16.60;56.60
19567;DHT22;9930;49.240;8.548;2023-03-23T03:19:22;16.60;56.70
19567;DHT22;9930;49.240;8.548;2023-03-23T03:21:56;16.60;56.60
19567;DHT22;9930;49.240;8.548;2023-03-23T03:24:25;16.60;56.70
19567;DHT22;9930;49.240;8.548;2023-03-23T03:26:55;16.60;56.70
19567;DHT22;9930;49.240;8.548;2023-03-23T03:29:32;16.60;57.30
19567;DHT22;9930;49.240;8.548;2023-03-23T03:32:02;16.60;56.70
19567;DHT22;9930;49.240;8.548;2023-03-23T03:34:33;16.60;56.80
19567;DHT22;9930;49.240;8.548;2023-03-23T03:37:02;16.60;56.80
19567;DHT22;9930;49.240;8.548;2023-03-23T03:39:35;16.60;56.80
19567;DHT22;9930;49.240;8.548;2023-03-23T03:42:06;16.60;57.00
19567;DHT22;9930;49.240;8.548;2023-03-23T03:44:33;16.60;57.00
19567;DHT22;9930;49.240;8.548;2023-03-23T03:46:59;16.60;57.10
19567;DHT22;9930;49.240;8.548;2023-03-23T03:49:27;16.60;57.10
19567;DHT22;9930;49.240;8.548;2023-03-23T03:51:53;16.50;57.10
19567;DHT22;9930;49.240;8.548;2023-03-23T03:54:19;16.50;57.30
19567;DHT22;9930;49.240;8.548;2023-03-23T03:56:45;16.50;57.40
19567;DHT22;9930;49.240;8.548;2023-03-23T03:59:11;16.50;57.60
19567;DHT22;9930;49.240;8.548;2023-03-23T04:01:40;16.50;57.70
19567;DHT22;9930;49.240;8.548;2023-03-23T04:04:08;16.50;57.70
19567;DHT22;9930;49.240;8.548;2023-03-23T04:06:34;16.50;57.80
19567;DHT22;9930;49.240;8.548;2023-03-23T04:09:02;16.40;57.80
19567;DHT22;9930;49.240;8.548;2023-03-23T04:11:34;16.40;57.90
19567;DHT22;9930;49.240;8.548;2023-03-23T04:14:00;16.40;58.00
19567;DHT22;9930;49.240;8.548;2023-03-23T04:16:28;16.40;58.10
19567;DHT22;9930;49.240;8.548;2023-03-23T04:18:55;16.40;58.10
19567;DHT22;9930;49.240;8.548;2023-03-23T04:21:24;16.40;58.10
19567;DHT22;9930;49.240;8.548;2023-03-23T04:23:55;16.40;58.20
19567;DHT22;9930;49.240;8.548;2023-03-23T04:26:25;16.40;58.20
19567;DHT22;9930;49.240;8.548;2023-03-23T04:28:54;16.40;58.20
19567;DHT22;9930;49.240;8.548;2023-03-23T04:31:22;16.30;58.20
19567;DHT22;9930;49.240;8.548;2023-03-23T04:33:54;16.40;58.30
19567;DHT22;9930;49.240;8.548;2023-03-23T04:36:25;16.40;58.30
19567;DHT22;9930;49.240;8.548;2023-03-23T04:38:51;16.40;58.30
19567;DHT22;9930;49.240;8.548;2023-03-23T04:41:20;16.40;58.30
19567;DHT22;9930;49.240;8.548;2023-03-23T04:43:51;16.40;58.40
19567;DHT22;9930;49.240;8.548;2023-03-23T04:46:19;16.40;58.40
19567;DHT22;9930;49.240;8.548;2023-03-23T04:48:55;16.50;58.50
19567;DHT22;9930;49.240;8.548;2023-03-23T04:51:24;16.40;58.50
19567;DHT22;9930;49.240;8.548;2023-03-23T04:53:51;16.40;58.50
19567;DHT22;9930;49.240;8.548;2023-03-23T04:56:18;16.50;58.50
19567;DHT22;9930;49.240;8.548;2023-03-23T04:58:46;16.50;58.60
19567;DHT22;9930;49.240;8.548;2023-03-23T05:01:14;16.50;58.50
19567;DHT22;9930;49.240;8.548;2023-03-23T05:03:43;16.50;58.50
19567;DHT22;9930;49.240;8.548;2023-03-23T05:06:09;16.50;58.50
19567;DHT22;9930;49.240;8.548;2023-03-23T05:08:36;16.60;58.70
19567;DHT22;9930;49.240;8.548;2023-03-23T05:11:07;16.60;58.80
19567;DHT22;9930;49.240;8.548;2023-03-23T05:13:34;16.70;58.90
19567;DHT22;9930;49.240;8.548;2023-03-23T05:16:04;16.70;58.90
19567;DHT22;9930;49.240;8.548;2023-03-23T05:18:31;16.70;59.00
19567;DHT22;9930;49.240;8.548;2023-03-23T05:21:03;16.70;59.00
19567;DHT22;9930;49.240;8.548;2023-03-23T05:23:32;16.80;59.10
19567;DHT22;9930;49.240;8.548;2023-03-23T05:26:01;16.70;59.10
19567;DHT22;9930;49.240;8.548;2023-03-23T05:28:27;16.80;59.10
19567;DHT22;9930;49.240;8.548;2023-03-23T05:30:53;16.80;59.80
19567;DHT22;9930;49.240;8.548;2023-03-23T05:33:22;16.80;59.20
19567;DHT22;9930;49.240;8.548;2023-03-23T05:35:50;16.80;59.20
19567;DHT22;9930;49.240;8.548;2023-03-23T05:38:21;16.80;60.10
19567;DHT22;9930;49.240;8.548;2023-03-23T05:40:52;16.80;59.50
19567;DHT22;9930;49.240;8.548;2023-03-23T05:43:20;16.80;59.50
19567;DHT22;9930;49.240;8.548;2023-03-23T05:45:46;16.80;60.10
19567;DHT22;9930;49.240;8.548;2023-03-23T05:48:12;16.80;59.50
19567;DHT22;9930;49.240;8.548;2023-03-23T05:50:38;16.80;59.50
19567;DHT22;9930;49.240;8.548;2023-03-23T05:53:06;16.80;59.50
19567;DHT22;9930;49.240;8.548;2023-03-23T05:55:37;16.80;59.50
19567;DHT22;9930;49.240;8.548;2023-03-23T05:58:03;16.80;59.50
19567;DHT22;9930;49.240;8.548;2023-03-23T06:00:28;16.70;59.40
19567;DHT22;9930;49.240;8.548;2023-03-23T06:02:56;16.70;59.40
19567;DHT22;9930;49.240;8.548;2023-03-23T06:05:22;16.70;59.40
19567;DHT22;9930;49.240;8.548;2023-03-23T06:07:49;16.80;59.50
19567;DHT22;9930;49.240;8.548;2023-03-23T06:10:17;16.80;59.50
19567;DHT22;9930;49.240;8.548;2023-03-23T06:12:43;16.80;59.50
19567;DHT22;9930;49.240;8.548;2023-03-23T06:15:10;16.80;59.50
19567;DHT22;9930;49.240;8.548;2023-03-23T06:17:37;16.80;59.50
19567;DHT22;9930;49.240;8.548;2023-03-23T06:20:07;16.80;59.50
19567;DHT22;9930;49.240;8.548;2023-03-23T06:22:38;16.80;59.50
19567;DHT22;9930;49.240;8.548;2023-03-23T06:25:09;16.80;59.50
19567;DHT22;9930;49.240;8.548;2023-03-23T06:27:38;16.80;60.00
19567;DHT22;9930;49.240;8.548;2023-03-23T06:30:06;16.90;59.60
19567;DHT22;9930;49.240;8.548;2023-03-23T06:32:35;16.80;59.50
19567;DHT22;9930;49.240;8.548;2023-03-23T06:35:08;16.80;59.60
19567;DHT22;9930;49.240;8.548;2023-03-23T06:37:36;16.90;59.50
19567;DHT22;9930;49.240;8.548;2023-03-23T06:40:05;16.90;59.50
19567;DHT22;9930;49.240;8.548;2023-03-23T06:42:33;16.90;59.50
19567;DHT22;9930;49.240;8.548;2023-03-23T06:44:59;16.90;59.70
19567;DHT22;9930;49.240;8.548;2023-03-23T06:47:30;16.90;59.50
19567;DHT22;9930;49.240;8.548;2023-03-23T06:50:00;17.00;59.60
19567;DHT22;9930;49.240;8.548;2023-03-23T06:52:26;17.00;59.60
19567;DHT22;9930;49.240;8.548;2023-03-23T06:54:53;17.00;59.60
19567;DHT22;9930;49.240;8.548;2023-03-23T06:57:21;17.00;59.50
19567;DHT22;9930;49.240;8.548;2023-03-23T06:59:49;17.00;59.50
19567;DHT22;9930;49.240;8.548;2023-03-23T07:02:17;17.00;59.40
19567;DHT22;9930;49.240;8.548;2023-03-23T07:04:42;17.00;59.40
19567;DHT22;9930;49.240;8.548;2023-03-23T07:07:09;17.10;59.40
19567;DHT22;9930;49.240;8.548;2023-03-23T07:09:36;17.10;59.40
19567;DHT22;9930;49.240;8.548;2023-03-23T07:12:40;17.10;59.40
19567;DHT22;9930;49.240;8.548;2023-03-23T07:15:07;17.00;59.20
19567;DHT22;9930;49.240;8.548;2023-03-23T07:17:36;17.10;59.40
19567;DHT22;9930;49.240;8.548;2023-03-23T07:20:05;17.10;59.50
19567;DHT22;9930;49.240;8.548;2023-03-23T07:22:36;17.10;59.60
19567;DHT22;9930;49.240;8.548;2023-03-23T07:25:02;17.10;59.60
19567;DHT22;9930;49.240;8.548;2023-03-23T07:27:28;17.20;59.80
19567;DHT22;9930;49.240;8.548;2023-03-23T07:29:53;17.20;59.80
19567;DHT22;9930;49.240;8.548;2023-03-23T07:32:19;17.20;59.80
19567;DHT22;9930;49.240;8.548;2023-03-23T07:34:47;17.20;59.80
19567;DHT22;9930;49.240;8.548;2023-03-23T07:37:17;17.20;59.70
19567;DHT22;9930;49.240;8.548;2023-03-23T07:39:46;17.20;59.70
19567;DHT22;9930;49.240;8.548;2023-03-23T07:42:13;17.20;59.80
19567;DHT22;9930;49.240;8.548;2023-03-23T07:44:39;17.20;59.90
19567;DHT22;9930;49.240;8.548;2023-03-23T07:47:05;17.20;60.00
19567;DHT22;9930;49.240;8.548;2023-03-23T07:49:30;17.20;60.00
19567;DHT22;9930;49.240;8.548;2023-03-23T07:51:57;17.20;60.10
19567;DHT22;9930;49.240;8.548;2023-03-23T07:54:23;17.20;60.10
19567;DHT22;9930;49.240;8.548;2023-03-23T07:56:50;17.20;60.40
19567;DHT22;9930;49.240;8.548;2023-03-23T07:59:16;17.20;60.50
19567;DHT22;9930;49.240;8.548;2023-03-23T08:01:42;17.20;60.60
19567;DHT22;9930;49.240;8.548;2023-03-23T08:04:08;17.30;60.70
19567;DHT22;9930;49.240;8.548;2023-03-23T08:06:36;17.30;60.70
19567;DHT22;9930;49.240;8.548;2023-03-23T08:09:05;17.30;60.70
19567;DHT22;9930;49.240;8.548;2023-03-23T08:11:36;17.40;60.80
19567;DHT22;9930;49.240;8.548;2023-03-23T08:14:04;17.40;60.80
19567;DHT22;9930;49.240;8.548;2023-03-23T08:16:33;17.50;60.80
19567;DHT22;9930;49.240;8.548;2023-03-23T08:19:01;17.50;60.80
19567;DHT22;9930;49.240;8.548;2023-03-23T08:21:27;17.50;60.80
19567;DHT22;9930;49.240;8.548;2023-03-23T08:23:56;17.60;60.80
19567;DHT22;9930;49.240;8.548;2023-03-23T08:26:21;17.60;60.90
19567;DHT22;9930;49.240;8.548;2023-03-23T08:28:47;17.60;60.90
19567;DHT22;9930;49.240;8.548;2023-03-23T08:31:19;17.70;60.90
19567;DHT22;9930;49.240;8.548;2023-03-23T08:33:47;17.80;61.10
19567;DHT22;9930;49.240;8.548;2023-03-23T08:36:13;17.80;61.10
19567;DHT22;9930;49.240;8.548;2023-03-23T08:38:40;17.80;61.10
19567;DHT22;9930;49.240;8.548;2023-03-23T08:41:12;17.90;61.10
19567;DHT22;9930;49.240;8.548;2023-03-23T08:43:38;18.00;61.80
19567;DHT22;9930;49.240;8.548;2023-03-23T08:46:05;18.00;61.00
19567;DHT22;9930;49.240;8.548;2023-03-23T08:48:37;18.10;60.90
19567;DHT22;9930;49.240;8.548;2023-03-23T08:51:05;18.20;60.90
19567;DHT22;9930;49.240;8.548;2023-03-23T08:53:32;18.30;61.00
19567;DHT22;9930;49.240;8.548;2023-03-23T08:56:10;18.40;61.00
19567;DHT22;9930;49.240;8.548;2023-03-23T08:58:38;18.40;60.80
19567;DHT22;9930;49.240;8.548;2023-03-23T09:01:07;18.50;60.70
19567;DHT22;9930;49.240;8.548;2023-03-23T09:03:34;18.60;60.40
19567;DHT22;9930;49.240;8.548;2023-03-23T09:06:02;18.70;60.30
19567;DHT22;9930;49.240;8.548;2023-03-23T09:08:35;18.80;60.30
19567;DHT22;9930;49.240;8.548;2023-03-23T09:11:05;18.80;60.10
19567;DHT22;9930;49.240;8.548;2023-03-23T09:13:33;18.80;60.00
19567;DHT22;9930;49.240;8.548;2023-03-23T09:16:04;18.80;60.70
19567;DHT22;9930;49.240;8.548;2023-03-23T09:18:32;18.80;59.90
19567;DHT22;9930;49.240;8.548;2023-03-23T09:21:02;18.80;59.70
19567;DHT22;9930;49.240;8.548;2023-03-23T09:23:33;18.80;59.90
19567;DHT22;9930;49.240;8.548;2023-03-23T09:26:02;18.80;59.80
19567;DHT22;9930;49.240;8.548;2023-03-23T09:28:29;18.70;59.90
19567;DHT22;9930;49.240;8.548;2023-03-23T09:30:56;18.70;60.00
19567;DHT22;9930;49.240;8.548;2023-03-23T09:33:23;18.60;61.10
19567;DHT22;9930;49.240;8.548;2023-03-23T09:35:49;18.60;60.20
19567;DHT22;9930;49.240;8.548;2023-03-23T09:38:20;18.60;60.20
19567;DHT22;9930;49.240;8.548;2023-03-23T09:41:32;18.60;60.20
19567;DHT22;9930;49.240;8.548;2023-03-23T09:44:23;18.50;60.10
19567;DHT22;9930;49.240;8.548;2023-03-23T09:47:23;18.50;60.10
19567;DHT22;9930;49.240;8.548;2023-03-23T09:50:07;18.50;60.10
19567;DHT22;9930;49.240;8.548;2023-03-23T09:55:05;18.50;60.20
19567;DHT22;9930;49.240;8.548;2023-03-23T09:58:03;18.50;60.20
19567;DHT22;9930;49.240;8.548;2023-03-23T10:00:51;18.40;60.30
19567;DHT22;9930;49.240;8.548;2023-03-23T10:03:34;18.40;60.40
19567;DHT22;9930;49.240;8.548;2023-03-23T10:06:05;18.40;60.50
19567;DHT22;9930;49.240;8.548;2023-03-23T10:08:34;18.40;60.70
19567;DHT22;9930;49.240;8.548;2023-03-23T10:17:08;18.50;60.80
19567;DHT22;9930;49.240;8.548;2023-03-23T10:22:32;18.60;61.00
19567;DHT22;9930;49.240;8.548;2023-03-23T10:25:14;18.60;61.00
19567;DHT22;9930;49.240;8.548;2023-03-23T10:30:31;18.70;60.80
19567;DHT22;9930;49.240;8.548;2023-03-23T10:38:34;18.70;60.70
19567;DHT22;9930;49.240;8.548;2023-03-23T10:41:17;18.80;60.70
19567;DHT22;9930;49.240;8.548;2023-03-23T10:43:46;18.80;60.60
19567;DHT22;9930;49.240;8.548;2023-03-23T10:49:18;18.70;60.90
19567;DHT22;9930;49.240;8.548;2023-03-23T10:52:01;18.80;61.10
19567;DHT22;9930;49.240;8.548;2023-03-23T10:54:45;18.70;61.10
19567;DHT22;9930;49.240;8.548;2023-03-23T10:57:28;18.70;61.20
19567;DHT22;9930;49.240;8.548;2023-03-23T11:02:45;18.80;61.40
19567;DHT22;9930;49.240;8.548;2023-03-23T11:08:04;18.70;61.30
19567;DHT22;9930;49.240;8.548;2023-03-23T11:13:32;18.60;61.50
19567;DHT22;9930;49.240;8.548;2023-03-23T11:16:02;18.60;61.50
19567;DHT22;9930;49.240;8.548;2023-03-23T11:18:41;18.50;61.60
19567;DHT22;9930;49.240;8.548;2023-03-23T11:21:15;18.50;61.90
19567;DHT22;9930;49.240;8.548;2023-03-23T11:23:48;18.40;61.80
19567;DHT22;9930;49.240;8.548;2023-03-23T11:26:31;18.40;62.30
19567;DHT22;9930;49.240;8.548;2023-03-23T11:29:09;18.30;62.50
19567;DHT22;9930;49.240;8.548;2023-03-23T11:32:02;18.30;63.00
19567;DHT22;9930;49.240;8.548;2023-03-23T11:34:37;18.30;63.30
19567;DHT22;9930;49.240;8.548;2023-03-23T11:37:09;18.30;62.90
19567;DHT22;9930;49.240;8.548;2023-03-23T11:39:48;18.30;62.90
19567;DHT22;9930;49.240;8.548;2023-03-23T11:51:41;18.30;62.60
19567;DHT22;9930;49.240;8.548;2023-03-23T11:56:49;18.30;62.30
19567;DHT22;9930;49.240;8.548;2023-03-23T11:59:33;18.40;62.40
19567;DHT22;9930;49.240;8.548;2023-03-23T12:05:52;18.40;62.30
19567;DHT22;9930;49.240;8.548;2023-03-23T12:11:45;18.40;62.30
19567;DHT22;9930;49.240;8.548;2023-03-23T12:14:34;18.40;62.40
19567;DHT22;9930;49.240;8.548;2023-03-23T12:26:54;18.50;62.00
19567;DHT22;9930;49.240;8.548;2023-03-23T12:29:41;18.60;61.90
19567;DHT22;9930;49.240;8.548;2023-03-23T12:33:01;18.60;61.70
19567;DHT22;9930;49.240;8.548;2023-03-23T12:41:53;18.60;61.30
19567;DHT22;9930;49.240;8.548;2023-03-23T12:44:38;18.60;61.40
19567;DHT22;9930;49.240;8.548;2023-03-23T12:47:17;18.60;61.40
19567;DHT22;9930;49.240;8.548;2023-03-23T12:49:53;18.60;61.40
19567;DHT22;9930;49.240;8.548;2023-03-23T12:55:27;18.50;61.20
19567;DHT22;9930;49.240;8.548;2023-03-23T12:58:05;18.50;61.30
19567;DHT22;9930;49.240;8.548;2023-03-23T13:01:01;18.50;61.30
19567;DHT22;9930;49.240;8.548;2023-03-23T13:04:01;18.50;61.30
19567;DHT22;9930;49.240;8.548;2023-03-23T13:06:39;18.50;61.30
19567;DHT22;9930;49.240;8.548;2023-03-23T13:12:25;18.50;61.10
19567;DHT22;9930;49.240;8.548;2023-03-23T13:23:50;18.40;61.20
19567;DHT22;9930;49.240;8.548;2023-03-23T13:26:24;18.40;61.20
19567;DHT22;9930;49.240;8.548;2023-03-23T13:29:05;18.50;61.20
19567;DHT22;9930;49.240;8.548;2023-03-23T13:31:36;18.40;61.20
19567;DHT22;9930;49.240;8.548;2023-03-23T13:34:25;18.50;61.20
19567;DHT22;9930;49.240;8.548;2023-03-23T13:37:04;18.40;60.80
19567;DHT22;9930;49.240;8.548;2023-03-23T13:42:30;18.40;60.70
19567;DHT22;9930;49.240;8.548;2023-03-23T13:50:52;18.40;60.50
19567;DHT22;9930;49.240;8.548;2023-03-23T13:53:28;18.40;60.50
19567;DHT22;9930;49.240;8.548;2023-03-23T13:56:32;18.40;60.40
19567;DHT22;9930;49.240;8.548;2023-03-23T13:59:48;18.40;60.40
19567;DHT22;9930;49.240;8.548;2023-03-23T14:02:39;18.30;60.30
19567;DHT22;9930;49.240;8.548;2023-03-23T14:08:01;18.30;60.20
19567;DHT22;9930;49.240;8.548;2023-03-23T14:10:53;18.30;60.20
19567;DHT22;9930;49.240;8.548;2023-03-23T14:13:30;18.30;60.30
19567;DHT22;9930;49.240;8.548;2023-03-23T14:15:58;18.20;60.20
19567;DHT22;9930;49.240;8.548;2023-03-23T14:18:39;18.30;60.40
19567;DHT22;9930;49.240;8.548;2023-03-23T14:21:15;18.30;60.40
19567;DHT22;9930;49.240;8.548;2023-03-23T14:23:50;18.20;60.30
19567;DHT22;9930;49.240;8.548;2023-03-23T14:26:20;18.30;60.40
19567;DHT22;9930;49.240;8.548;2023-03-23T14:28:53;18.30;60.40
19567;DHT22;9930;49.240;8.548;2023-03-23T14:31:27;18.20;60.40
19567;DHT22;9930;49.240;8.548;2023-03-23T14:33:56;18.20;60.40
19567;DHT22;9930;49.240;8.548;2023-03-23T14:36:29;18.30;60.40
19567;DHT22;9930;49.240;8.548;2023-03-23T14:39:11;18.30;60.50
19567;DHT22;9930;49.240;8.548;2023-03-23T14:41:51;18.20;61.20
19567;DHT22;9930;49.240;8.548;2023-03-23T14:44:26;18.30;60.60
19567;DHT22;9930;49.240;8.548;2023-03-23T14:46:57;18.30;60.70
19567;DHT22;9930;49.240;8.548;2023-03-23T14:49:34;18.30;60.70
19567;DHT22;9930;49.240;8.548;2023-03-23T14:52:15;18.30;60.60
19567;DHT22;9930;49.240;8.548;2023-03-23T14:54:46;18.30;60.70
19567;DHT22;9930;49.240;8.548;2023-03-23T14:57:45;18.30;60.70
19567;DHT22;9930;49.240;8.548;2023-03-23T15:02:56;18.30;60.70
19567;DHT22;9930;49.240;8.548;2023-03-23T15:05:34;18.30;60.70
19567;DHT22;9930;49.240;8.548;2023-03-23T15:08:13;18.30;60.60
19567;DHT22;9930;49.240;8.548;2023-03-23T15:10:52;18.30;60.60
19567;DHT22;9930;49.240;8.548;2023-03-23T15:13:22;18.30;60.50
19567;DHT22;9930;49.240;8.548;2023-03-23T15:15:49;18.30;60.50
19567;DHT22;9930;49.240;8.548;2023-03-23T15:18:37;18.30;60.50
19567;DHT22;9930;49.240;8.548;2023-03-23T15:21:23;18.20;60.50
19567;DHT22;9930;49.240;8.548;2023-03-23T15:23:53;18.20;60.60
19567;DHT22;9930;49.240;8.548;2023-03-23T15:26:31;18.30;61.50
19567;DHT22;9930;49.240;8.548;2023-03-23T15:29:15;18.30;60.80
19567;DHT22;9930;49.240;8.548;2023-03-23T15:32:03;18.40;60.90
19567;DHT22;9930;49.240;8.548;2023-03-23T15:34:34;18.40;60.90
19567;DHT22;9930;49.240;8.548;2023-03-23T15:37:13;18.40;60.80
19567;DHT22;9930;49.240;8.548;2023-03-23T15:39:56;18.50;60.90
19567;DHT22;9930;49.240;8.548;2023-03-23T15:42:31;18.50;60.90
19567;DHT22;9930;49.240;8.548;2023-03-23T15:50:17;18.50;60.80
19567;DHT22;9930;49.240;8.548;2023-03-23T15:52:58;18.50;60.80
19567;DHT22;9930;49.240;8.548;2023-03-23T15:55:27;18.50;60.80
19567;DHT22;9930;49.240;8.548;2023-03-23T15:57:56;18.50;60.90
19567;DHT22;9930;49.240;8.548;2023-03-23T16:00:24;18.50;60.90
19567;DHT22;9930;49.240;8.548;2023-03-23T16:02:57;18.50;60.90
19567;DHT22;9930;49.240;8.548;2023-03-23T16:05:28;18.50;60.90
19567;DHT22;9930;49.240;8.548;2023-03-23T16:07:54;18.50;60.90
19567;DHT22;9930;49.240;8.548;2023-03-23T16:10:22;18.50;61.00
19567;DHT22;9930;49.240;8.548;2023-03-23T16:12:49;18.40;61.10
19567;DHT22;9930;49.240;8.548;2023-03-23T16:15:20;18.50;61.20
19567;DHT22;9930;49.240;8.548;2023-03-23T16:17:51;18.40;61.20
19567;DHT22;9930;49.240;8.548;2023-03-23T16:20:20;18.40;61.20
19567;DHT22;9930;49.240;8.548;2023-03-23T16:22:48;18.40;62.00
19567;DHT22;9930;49.240;8.548;2023-03-23T16:25:14;18.40;61.20
19567;DHT22;9930;49.240;8.548;2023-03-23T16:27:46;18.40;61.30
19567;DHT22;9930;49.240;8.548;2023-03-23T16:30:34;18.40;61.30
19567;DHT22;9930;49.240;8.548;2023-03-23T16:33:00;18.30;61.40
19567;DHT22;9930;49.240;8.548;2023-03-23T16:35:26;18.40;61.30
19567;DHT22;9930;49.240;8.548;2023-03-23T16:37:56;18.40;61.30
19567;DHT22;9930;49.240;8.548;2023-03-23T16:40:25;18.30;61.40
19567;DHT22;9930;49.240;8.548;2023-03-23T16:42:51;18.30;61.40
19567;DHT22;9930;49.240;8.548;2023-03-23T16:45:18;18.30;61.50
19567;DHT22;9930;49.240;8.548;2023-03-23T16:47:48;18.30;61.60
19567;DHT22;9930;49.240;8.548;2023-03-23T16:50:19;18.30;61.60
19567;DHT22;9930;49.240;8.548;2023-03-23T16:52:46;18.30;61.70
19567;DHT22;9930;49.240;8.548;2023-03-23T16:55:15;18.30;61.80
19567;DHT22;9930;49.240;8.548;2023-03-23T16:57:48;18.30;61.80
19567;DHT22;9930;49.240;8.548;2023-03-23T17:00:16;18.20;61.80
19567;DHT22;9930;49.240;8.548;2023-03-23T17:02:50;18.20;61.90
19567;DHT22;9930;49.240;8.548;2023-03-23T17:05:21;18.20;62.00
19567;DHT22;9930;49.240;8.548;2023-03-23T17:07:54;18.20;62.00
19567;DHT22;9930;49.240;8.548;2023-03-23T17:10:22;18.20;62.20
19567;DHT22;9930;49.240;8.548;2023-03-23T17:12:49;18.20;62.20
19567;DHT22;9930;49.240;8.548;2023-03-23T17:15:15;18.20;62.30
19567;DHT22;9930;49.240;8.548;2023-03-23T17:17:41;18.20;62.40
19567;DHT22;9930;49.240;8.548;2023-03-23T17:20:07;18.20;62.40
19567;DHT22;9930;49.240;8.548;2023-03-23T17:22:37;18.10;62.40
19567;DHT22;9930;49.240;8.548;2023-03-23T17:25:05;18.10;62.50
19567;DHT22;9930;49.240;8.548;2023-03-23T17:27:35;18.10;62.60
19567;DHT22;9930;49.240;8.548;2023-03-23T17:30:07;18.10;62.60
19567;DHT22;9930;49.240;8.548;2023-03-23T17:32:36;18.10;62.70
19567;DHT22;9930;49.240;8.548;2023-03-23T17:35:03;18.10;62.70
19567;DHT22;9930;49.240;8.548;2023-03-23T17:37:30;18.10;62.80
19567;DHT22;9930;49.240;8.548;2023-03-23T17:39:56;18.10;62.80
19567;DHT22;9930;49.240;8.548;2023-03-23T17:42:21;18.00;62.80
19567;DHT22;9930;49.240;8.548;2023-03-23T17:44:47;18.00;62.90
19567;DHT22;9930;49.240;8.548;2023-03-23T17:47:13;18.00;62.90
19567;DHT22;9930;49.240;8.548;2023-03-23T17:49:41;18.00;63.10
19567;DHT22;9930;49.240;8.548;2023-03-23T17:52:07;18.00;63.10
19567;DHT22;9930;49.240;8.548;2023-03-23T17:54:38;17.90;63.10
19567;DHT22;9930;49.240;8.548;2023-03-23T17:57:09;17.90;63.10
19567;DHT22;9930;49.240;8.548;2023-03-23T17:59:35;17.90;63.30
19567;DHT22;9930;49.240;8.548;2023-03-23T18:02:03;17.90;63.40
19567;DHT22;9930;49.240;8.548;2023-03-23T18:04:29;17.90;63.50
19567;DHT22;9930;49.240;8.548;2023-03-23T18:06:56;17.90;63.50
19567;DHT22;9930;49.240;8.548;2023-03-23T18:09:23;17.90;63.60
19567;DHT22;9930;49.240;8.548;2023-03-23T18:11:52;17.90;63.60
19567;DHT22;9930;49.240;8.548;2023-03-23T18:14:19;17.90;63.70